sensor_id;sensor_type;location;lat;lon;timestamp;P1;durP1;ratioP1;P2;durP2;ratioP2
17510;SDS011;8873;48.818;9.422;2023-06-26T00:00:07;10.93;;;5.40;;
17510;SDS011;8873;48.818;9.422;2023-06-26T00:02:35;8.50;;;5.28;;
17510;SDS011;8873;48.818;9.422;2023-06-26T00:05:03;13.10;;;5.75;;
17510;SDS011;8873;48.818;9.422;2023-06-26T00:07:31;9.18;;;5.47;;
17510;SDS011;8873;48.818;9.422;2023-06-26T00:10:00;9.10;;;5.50;;
17510;SDS011;8873;48.818;9.422;2023-06-26T00:12:30;11.02;;;5.90;;
17510;SDS011;8873;48.818;9.422;2023-06-26T00:14:58;9.25;;;6.03;;
17510;SDS011;8873;48.818;9.422;2023-06-26T00:17:28;10.20;;;5.75;;
17510;SDS011;8873;48.818;9.422;2023-06-26T00:19:56;9.45;;;5.82;;
17510;SDS011;8873;48.818;9.422;2023-06-26T00:22:23;10.80;;;6.05;;
17510;SDS011;8873;48.818;9.422;2023-06-26T00:24:51;9.50;;;5.97;;
17510;SDS011;8873;48.818;9.422;2023-06-26T00:27:19;8.75;;;5.25;;
17510;SDS011;8873;48.818;9.422;2023-06-26T00:29:48;9.00;;;5.60;;
17510;SDS011;8873;48.818;9.422;2023-06-26T00:32:16;9.73;;;5.68;;
17510;SDS011;8873;48.818;9.422;2023-06-26T00:34:43;9.02;;;6.10;;
17510;SDS011;8873;48.818;9.422;2023-06-26T00:37:13;14.20;;;5.45;;
17510;SDS011;8873;48.818;9.422;2023-06-26T00:39:40;9.23;;;5.70;;
17510;SDS011;8873;48.818;9.422;2023-06-26T00:42:08;10.52;;;5.75;;
17510;SDS011;8873;48.818;9.422;2023-06-26T00:44:36;8.95;;;5.10;;
17510;SDS011;8873;48.818;9.422;2023-06-26T00:47:05;8.45;;;5.15;;
17510;SDS011;8873;48.818;9.422;2023-06-26T00:49:33;9.68;;;5.80;;
17510;SDS011;8873;48.818;9.422;2023-06-26T00:52:00;9.98;;;6.22;;
17510;SDS011;8873;48.818;9.422;2023-06-26T00:54:29;8.35;;;5.43;;
17510;SDS011;8873;48.818;9.422;2023-06-26T00:56:57;7.65;;;5.63;;
17510;SDS011;8873;48.818;9.422;2023-06-26T00:59:26;10.30;;;6.00;;
17510;SDS011;8873;48.818;9.422;2023-06-26T01:01:53;9.90;;;4.90;;
17510;SDS011;8873;48.818;9.422;2023-06-26T01:04:23;11.00;;;6.18;;
17510;SDS011;8873;48.818;9.422;2023-06-26T01:06:53;9.45;;;5.90;;
17510;SDS011;8873;48.818;9.422;2023-06-26T01:09:22;9.27;;;5.70;;
17510;SDS011;8873;48.818;9.422;2023-06-26T01:11:50;9.40;;;5.35;;
17510;SDS011;8873;48.818;9.422;2023-06-26T01:14:17;11.02;;;5.63;;
17510;SDS011;8873;48.818;9.422;2023-06-26T01:16:45;9.60;;;5.25;;
17510;SDS011;8873;48.818;9.422;2023-06-26T01:19:17;10.85;;;5.90;;
17510;SDS011;8873;48.818;9.422;2023-06-26T01:21:54;8.73;;;5.75;;
17510;SDS011;8873;48.818;9.422;2023-06-26T01:24:25;11.02;;;5.72;;
17510;SDS011;8873;48.818;9.422;2023-06-26T01:26:57;9.45;;;5.40;;
17510;SDS011;8873;48.818;9.422;2023-06-26T01:29:26;10.40;;;5.97;;
17510;SDS011;8873;48.818;9.422;2023-06-26T01:31:55;9.20;;;5.80;;
17510;SDS011;8873;48.818;9.422;2023-06-26T01:34:23;9.75;;;5.70;;
17510;SDS011;8873;48.818;9.422;2023-06-26T01:36:51;14.10;;;5.88;;
17510;SDS011;8873;48.818;9.422;2023-06-26T01:39:19;22.88;;;6.28;;
17510;SDS011;8873;48.818;9.422;2023-06-26T01:41:47;10.75;;;6.32;;
17510;SDS011;8873;48.818;9.422;2023-06-26T01:44:28;10.45;;;5.85;;
17510;SDS011;8873;48.818;9.422;2023-06-26T01:46:59;10.75;;;5.90;;
17510;SDS011;8873;48.818;9.422;2023-06-26T01:49:33;11.15;;;5.93;;
17510;SDS011;8873;48.818;9.422;2023-06-26T01:52:06;9.38;;;5.82;;
17510;SDS011;8873;48.818;9.422;2023-06-26T01:54:37;9.77;;;5.35;;
17510;SDS011;8873;48.818;9.422;2023-06-26T01:57:05;11.15;;;5.90;;
17510;SDS011;8873;48.818;9.422;2023-06-26T01:59:35;8.68;;;5.65;;
17510;SDS011;8873;48.818;9.422;2023-06-26T02:02:06;10.98;;;5.85;;
17510;SDS011;8873;48.818;9.422;2023-06-26T02:04:34;7.30;;;5.55;;
17510;SDS011;8873;48.818;9.422;2023-06-26T02:07:01;11.35;;;6.30;;
17510;SDS011;8873;48.818;9.422;2023-06-26T02:09:29;11.88;;;6.07;;
17510;SDS011;8873;48.818;9.422;2023-06-26T02:11:57;9.88;;;5.55;;
17510;SDS011;8873;48.818;9.422;2023-06-26T02:14:24;9.07;;;5.88;;
17510;SDS011;8873;48.818;9.422;2023-06-26T02:16:55;10.00;;;5.43;;
17510;SDS011;8873;48.818;9.422;2023-06-26T02:19:23;9.40;;;5.80;;
17510;SDS011;8873;48.818;9.422;2023-06-26T02:21:51;9.15;;;6.03;;
17510;SDS011;8873;48.818;9.422;2023-06-26T02:24:19;10.18;;;5.55;;
17510;SDS011;8873;48.818;9.422;2023-06-26T02:26:46;8.52;;;5.47;;
17510;SDS011;8873;48.818;9.422;2023-06-26T02:29:15;9.18;;;5.68;;
17510;SDS011;8873;48.818;9.422;2023-06-26T02:31:43;8.35;;;5.18;;
17510;SDS011;8873;48.818;9.422;2023-06-26T02:34:12;11.48;;;6.32;;
17510;SDS011;8873;48.818;9.422;2023-06-26T02:36:39;9.85;;;5.45;;
17510;SDS011;8873;48.818;9.422;2023-06-26T02:39:07;7.60;;;5.82;;
17510;SDS011;8873;48.818;9.422;2023-06-26T02:41:34;13.95;;;6.50;;
17510;SDS011;8873;48.818;9.422;2023-06-26T02:44:02;9.23;;;5.65;;
17510;SDS011;8873;48.818;9.422;2023-06-26T02:46:30;10.20;;;6.05;;
17510;SDS011;8873;48.818;9.422;2023-06-26T02:49:01;9.63;;;5.90;;
17510;SDS011;8873;48.818;9.422;2023-06-26T02:51:33;11.15;;;5.88;;
17510;SDS011;8873;48.818;9.422;2023-06-26T02:54:01;9.27;;;5.93;;
17510;SDS011;8873;48.818;9.422;2023-06-26T02:56:29;8.82;;;5.38;;
17510;SDS011;8873;48.818;9.422;2023-06-26T02:58:56;13.02;;;6.53;;
17510;SDS011;8873;48.818;9.422;2023-06-26T03:01:24;8.50;;;5.47;;
17510;SDS011;8873;48.818;9.422;2023-06-26T03:03:52;9.07;;;5.72;;
17510;SDS011;8873;48.818;9.422;2023-06-26T03:06:20;10.75;;;5.90;;
17510;SDS011;8873;48.818;9.422;2023-06-26T03:08:50;11.25;;;5.85;;
17510;SDS011;8873;48.818;9.422;2023-06-26T03:11:17;11.10;;;5.97;;
17510;SDS011;8873;48.818;9.422;2023-06-26T03:13:45;10.85;;;6.38;;
17510;SDS011;8873;48.818;9.422;2023-06-26T03:16:13;11.85;;;6.55;;
17510;SDS011;8873;48.818;9.422;2023-06-26T03:18:41;13.68;;;6.43;;
17510;SDS011;8873;48.818;9.422;2023-06-26T03:21:08;10.40;;;6.18;;
17510;SDS011;8873;48.818;9.422;2023-06-26T03:23:38;9.43;;;6.00;;
17510;SDS011;8873;48.818;9.422;2023-06-26T03:26:08;9.02;;;6.03;;
17510;SDS011;8873;48.818;9.422;2023-06-26T03:28:35;11.13;;;6.28;;
17510;SDS011;8873;48.818;9.422;2023-06-26T03:31:03;8.75;;;5.28;;
17510;SDS011;8873;48.818;9.422;2023-06-26T03:33:31;11.57;;;6.50;;
17510;SDS011;8873;48.818;9.422;2023-06-26T03:35:58;8.00;;;5.63;;
17510;SDS011;8873;48.818;9.422;2023-06-26T03:38:26;12.02;;;6.30;;
17510;SDS011;8873;48.818;9.422;2023-06-26T03:40:54;14.85;;;6.22;;
17510;SDS011;8873;48.818;9.422;2023-06-26T03:43:23;11.43;;;6.30;;
17510;SDS011;8873;48.818;9.422;2023-06-26T03:45:50;9.45;;;5.85;;
17510;SDS011;8873;48.818;9.422;2023-06-26T03:48:18;12.75;;;6.47;;
17510;SDS011;8873;48.818;9.422;2023-06-26T03:50:45;10.05;;;6.07;;
17510;SDS011;8873;48.818;9.422;2023-06-26T03:53:13;10.90;;;6.13;;
17510;SDS011;8873;48.818;9.422;2023-06-26T03:55:40;11.10;;;6.50;;
17510;SDS011;8873;48.818;9.422;2023-06-26T03:58:08;9.95;;;6.00;;
17510;SDS011;8873;48.818;9.422;2023-06-26T04:00:37;9.52;;;6.05;;
17510;SDS011;8873;48.818;9.422;2023-06-26T04:03:06;12.10;;;6.47;;
17510;SDS011;8873;48.818;9.422;2023-06-26T04:05:35;10.35;;;6.65;;
17510;SDS011;8873;48.818;9.422;2023-06-26T04:08:03;10.50;;;5.75;;
17510;SDS011;8873;48.818;9.422;2023-06-26T04:10:31;11.15;;;6.25;;
17510;SDS011;8873;48.818;9.422;2023-06-26T04:12:59;11.07;;;5.82;;
17510;SDS011;8873;48.818;9.422;2023-06-26T04:15:26;9.98;;;6.15;;
17510;SDS011;8873;48.818;9.422;2023-06-26T04:17:55;11.45;;;6.07;;
17510;SDS011;8873;48.818;9.422;2023-06-26T04:20:23;9.73;;;5.97;;
17510;SDS011;8873;48.818;9.422;2023-06-26T04:22:51;11.00;;;6.38;;
17510;SDS011;8873;48.818;9.422;2023-06-26T04:25:19;12.88;;;6.93;;
17510;SDS011;8873;48.818;9.422;2023-06-26T04:27:47;13.50;;;6.82;;
17510;SDS011;8873;48.818;9.422;2023-06-26T04:30:14;9.50;;;6.13;;
17510;SDS011;8873;48.818;9.422;2023-06-26T04:32:42;10.18;;;6.32;;
17510;SDS011;8873;48.818;9.422;2023-06-26T04:35:11;12.65;;;6.43;;
17510;SDS011;8873;48.818;9.422;2023-06-26T04:37:42;10.52;;;6.65;;
17510;SDS011;8873;48.818;9.422;2023-06-26T04:40:16;10.45;;;6.40;;
17510;SDS011;8873;48.818;9.422;2023-06-26T04:42:48;13.65;;;7.20;;
17510;SDS011;8873;48.818;9.422;2023-06-26T04:45:27;11.90;;;6.47;;
17510;SDS011;8873;48.818;9.422;2023-06-26T04:47:59;11.00;;;6.15;;
17510;SDS011;8873;48.818;9.422;2023-06-26T04:50:31;13.07;;;6.28;;
17510;SDS011;8873;48.818;9.422;2023-06-26T05:00:08;14.18;;;6.45;;
17510;SDS011;8873;48.818;9.422;2023-06-26T05:02:37;13.93;;;7.28;;
17510;SDS011;8873;48.818;9.422;2023-06-26T05:05:05;12.70;;;6.60;;
17510;SDS011;8873;48.818;9.422;2023-06-26T05:07:34;10.57;;;6.63;;
17510;SDS011;8873;48.818;9.422;2023-06-26T05:10:02;12.02;;;6.50;;
17510;SDS011;8873;48.818;9.422;2023-06-26T05:12:30;12.55;;;6.75;;
17510;SDS011;8873;48.818;9.422;2023-06-26T05:14:57;12.02;;;6.63;;
17510;SDS011;8873;48.818;9.422;2023-06-26T05:17:25;11.15;;;6.18;;
17510;SDS011;8873;48.818;9.422;2023-06-26T05:19:53;11.48;;;6.57;;
17510;SDS011;8873;48.818;9.422;2023-06-26T05:22:21;9.98;;;6.13;;
17510;SDS011;8873;48.818;9.422;2023-06-26T05:24:50;12.63;;;7.60;;
17510;SDS011;8873;48.818;9.422;2023-06-26T05:27:19;9.70;;;6.22;;
17510;SDS011;8873;48.818;9.422;2023-06-26T05:29:48;11.50;;;6.43;;
17510;SDS011;8873;48.818;9.422;2023-06-26T05:32:16;11.07;;;6.22;;
17510;SDS011;8873;48.818;9.422;2023-06-26T05:34:45;11.85;;;6.63;;
17510;SDS011;8873;48.818;9.422;2023-06-26T05:37:13;10.52;;;6.35;;
17510;SDS011;8873;48.818;9.422;2023-06-26T05:39:42;11.85;;;6.55;;
17510;SDS011;8873;48.818;9.422;2023-06-26T05:42:12;11.48;;;6.90;;
17510;SDS011;8873;48.818;9.422;2023-06-26T05:44:39;11.20;;;5.90;;
17510;SDS011;8873;48.818;9.422;2023-06-26T05:47:07;12.45;;;6.72;;
17510;SDS011;8873;48.818;9.422;2023-06-26T05:49:35;11.48;;;6.47;;
17510;SDS011;8873;48.818;9.422;2023-06-26T05:52:03;10.10;;;6.22;;
17510;SDS011;8873;48.818;9.422;2023-06-26T05:54:31;9.80;;;6.15;;
17510;SDS011;8873;48.818;9.422;2023-06-26T05:56:59;10.57;;;6.25;;
17510;SDS011;8873;48.818;9.422;2023-06-26T05:59:28;12.43;;;7.28;;
17510;SDS011;8873;48.818;9.422;2023-06-26T06:01:58;12.02;;;6.50;;
17510;SDS011;8873;48.818;9.422;2023-06-26T06:04:26;12.00;;;6.50;;
17510;SDS011;8873;48.818;9.422;2023-06-26T06:06:53;10.30;;;6.63;;
17510;SDS011;8873;48.818;9.422;2023-06-26T06:09:21;10.35;;;6.18;;
17510;SDS011;8873;48.818;9.422;2023-06-26T06:11:49;10.93;;;6.53;;
17510;SDS011;8873;48.818;9.422;2023-06-26T06:14:16;11.73;;;5.80;;
17510;SDS011;8873;48.818;9.422;2023-06-26T06:16:45;13.88;;;6.30;;
17510;SDS011;8873;48.818;9.422;2023-06-26T06:19:13;9.38;;;5.82;;
17510;SDS011;8873;48.818;9.422;2023-06-26T06:21:41;10.63;;;6.30;;
17510;SDS011;8873;48.818;9.422;2023-06-26T06:24:09;10.68;;;6.20;;
17510;SDS011;8873;48.818;9.422;2023-06-26T06:26:37;11.68;;;6.00;;
17510;SDS011;8873;48.818;9.422;2023-06-26T06:29:04;9.00;;;5.95;;
17510;SDS011;8873;48.818;9.422;2023-06-26T06:31:32;9.23;;;5.65;;
17510;SDS011;8873;48.818;9.422;2023-06-26T06:34:01;9.52;;;6.13;;
17510;SDS011;8873;48.818;9.422;2023-06-26T06:36:29;8.98;;;5.57;;
17510;SDS011;8873;48.818;9.422;2023-06-26T06:38:57;10.85;;;6.47;;
17510;SDS011;8873;48.818;9.422;2023-06-26T06:41:24;7.78;;;5.57;;
17510;SDS011;8873;48.818;9.422;2023-06-26T06:43:52;12.15;;;6.10;;
17510;SDS011;8873;48.818;9.422;2023-06-26T06:46:20;11.13;;;6.30;;
17510;SDS011;8873;48.818;9.422;2023-06-26T06:48:47;7.68;;;6.05;;
17510;SDS011;8873;48.818;9.422;2023-06-26T06:51:16;8.70;;;5.63;;
17510;SDS011;8873;48.818;9.422;2023-06-26T06:53:44;11.05;;;6.50;;
17510;SDS011;8873;48.818;9.422;2023-06-26T06:56:12;9.65;;;5.65;;
17510;SDS011;8873;48.818;9.422;2023-06-26T06:58:39;8.35;;;5.55;;
17510;SDS011;8873;48.818;9.422;2023-06-26T07:01:08;7.72;;;5.35;;
17510;SDS011;8873;48.818;9.422;2023-06-26T07:03:36;7.45;;;5.70;;
17510;SDS011;8873;48.818;9.422;2023-06-26T07:06:04;7.50;;;5.07;;
17510;SDS011;8873;48.818;9.422;2023-06-26T07:08:33;8.60;;;5.53;;
17510;SDS011;8873;48.818;9.422;2023-06-26T07:11:01;7.75;;;5.22;;
17510;SDS011;8873;48.818;9.422;2023-06-26T07:13:29;7.97;;;5.47;;
17510;SDS011;8873;48.818;9.422;2023-06-26T07:15:57;6.53;;;5.10;;
17510;SDS011;8873;48.818;9.422;2023-06-26T07:18:24;9.77;;;5.47;;
17510;SDS011;8873;48.818;9.422;2023-06-26T07:20:52;7.18;;;5.35;;
17510;SDS011;8873;48.818;9.422;2023-06-26T07:23:20;9.55;;;5.60;;
17510;SDS011;8873;48.818;9.422;2023-06-26T07:25:49;9.00;;;5.75;;
17510;SDS011;8873;48.818;9.422;2023-06-26T07:28:17;8.85;;;6.00;;
17510;SDS011;8873;48.818;9.422;2023-06-26T07:30:44;8.15;;;5.22;;
17510;SDS011;8873;48.818;9.422;2023-06-26T07:33:12;7.63;;;5.60;;
17510;SDS011;8873;48.818;9.422;2023-06-26T07:35:40;7.63;;;5.40;;
17510;SDS011;8873;48.818;9.422;2023-06-26T07:38:07;7.22;;;5.15;;
17510;SDS011;8873;48.818;9.422;2023-06-26T07:40:35;6.22;;;5.20;;
17510;SDS011;8873;48.818;9.422;2023-06-26T07:43:05;7.50;;;5.18;;
17510;SDS011;8873;48.818;9.422;2023-06-26T07:45:32;9.30;;;5.65;;
17510;SDS011;8873;48.818;9.422;2023-06-26T07:48:00;7.93;;;5.50;;
17510;SDS011;8873;48.818;9.422;2023-06-26T07:50:28;6.90;;;5.10;;
17510;SDS011;8873;48.818;9.422;2023-06-26T07:52:55;11.02;;;5.85;;
17510;SDS011;8873;48.818;9.422;2023-06-26T07:55:23;12.57;;;5.03;;
17510;SDS011;8873;48.818;9.422;2023-06-26T07:57:52;10.27;;;5.05;;
17510;SDS011;8873;48.818;9.422;2023-06-26T08:00:23;8.63;;;5.25;;
17510;SDS011;8873;48.818;9.422;2023-06-26T08:02:50;6.45;;;5.00;;
17510;SDS011;8873;48.818;9.422;2023-06-26T08:05:18;9.65;;;5.00;;
17510;SDS011;8873;48.818;9.422;2023-06-26T08:07:46;7.07;;;5.47;;
17510;SDS011;8873;48.818;9.422;2023-06-26T08:10:14;6.75;;;4.93;;
17510;SDS011;8873;48.818;9.422;2023-06-26T08:12:41;7.70;;;5.43;;
17510;SDS011;8873;48.818;9.422;2023-06-26T08:15:11;10.10;;;5.15;;
17510;SDS011;8873;48.818;9.422;2023-06-26T08:17:40;10.35;;;4.93;;
17510;SDS011;8873;48.818;9.422;2023-06-26T08:20:08;13.10;;;5.32;;
17510;SDS011;8873;48.818;9.422;2023-06-26T08:22:37;8.63;;;4.78;;
17510;SDS011;8873;48.818;9.422;2023-06-26T08:25:05;8.18;;;5.35;;
17510;SDS011;8873;48.818;9.422;2023-06-26T08:27:32;9.70;;;5.63;;
17510;SDS011;8873;48.818;9.422;2023-06-26T08:30:00;10.77;;;5.30;;
17510;SDS011;8873;48.818;9.422;2023-06-26T08:32:28;8.57;;;4.93;;
17510;SDS011;8873;48.818;9.422;2023-06-26T08:34:57;9.35;;;5.15;;
17510;SDS011;8873;48.818;9.422;2023-06-26T08:37:24;7.07;;;5.00;;
17510;SDS011;8873;48.818;9.422;2023-06-26T08:39:52;6.15;;;5.25;;
17510;SDS011;8873;48.818;9.422;2023-06-26T08:42:20;7.20;;;5.10;;
17510;SDS011;8873;48.818;9.422;2023-06-26T08:44:47;6.40;;;4.88;;
17510;SDS011;8873;48.818;9.422;2023-06-26T08:47:27;6.50;;;4.93;;
17510;SDS011;8873;48.818;9.422;2023-06-26T08:50:01;5.82;;;4.80;;
17510;SDS011;8873;48.818;9.422;2023-06-26T08:52:33;5.75;;;4.97;;
17510;SDS011;8873;48.818;9.422;2023-06-26T08:55:02;6.13;;;5.15;;
17510;SDS011;8873;48.818;9.422;2023-06-26T08:57:30;8.43;;;4.93;;
17510;SDS011;8873;48.818;9.422;2023-06-26T08:59:58;10.80;;;5.07;;
17510;SDS011;8873;48.818;9.422;2023-06-26T09:02:25;6.30;;;5.15;;
17510;SDS011;8873;48.818;9.422;2023-06-26T09:04:53;8.65;;;4.63;;
17510;SDS011;8873;48.818;9.422;2023-06-26T09:07:22;5.80;;;4.90;;
17510;SDS011;8873;48.818;9.422;2023-06-26T09:09:50;7.40;;;4.65;;
17510;SDS011;8873;48.818;9.422;2023-06-26T09:12:18;6.68;;;4.85;;
17510;SDS011;8873;48.818;9.422;2023-06-26T09:14:46;5.57;;;4.53;;
17510;SDS011;8873;48.818;9.422;2023-06-26T09:17:14;6.68;;;4.88;;
17510;SDS011;8873;48.818;9.422;2023-06-26T09:19:45;7.28;;;5.28;;
17510;SDS011;8873;48.818;9.422;2023-06-26T09:22:13;5.15;;;4.60;;
17510;SDS011;8873;48.818;9.422;2023-06-26T09:24:43;7.30;;;5.15;;
17510;SDS011;8873;48.818;9.422;2023-06-26T09:27:11;9.80;;;5.22;;
17510;SDS011;8873;48.818;9.422;2023-06-26T09:29:38;5.20;;;4.70;;
17510;SDS011;8873;48.818;9.422;2023-06-26T09:32:07;6.53;;;4.40;;
17510;SDS011;8873;48.818;9.422;2023-06-26T09:34:35;5.57;;;4.45;;
17510;SDS011;8873;48.818;9.422;2023-06-26T09:37:03;6.13;;;4.60;;
17510;SDS011;8873;48.818;9.422;2023-06-26T09:39:31;4.68;;;4.28;;
17510;SDS011;8873;48.818;9.422;2023-06-26T09:42:00;5.80;;;4.15;;
17510;SDS011;8873;48.818;9.422;2023-06-26T09:44:33;6.18;;;4.50;;
17510;SDS011;8873;48.818;9.422;2023-06-26T09:47:02;6.93;;;4.60;;
17510;SDS011;8873;48.818;9.422;2023-06-26T09:49:30;6.15;;;4.60;;
17510;SDS011;8873;48.818;9.422;2023-06-26T09:51:59;5.18;;;4.63;;
17510;SDS011;8873;48.818;9.422;2023-06-26T09:54:28;6.72;;;4.63;;
17510;SDS011;8873;48.818;9.422;2023-06-26T09:57:02;5.15;;;4.47;;
17510;SDS011;8873;48.818;9.422;2023-06-26T09:59:34;5.63;;;4.35;;
17510;SDS011;8873;48.818;9.422;2023-06-26T10:02:02;5.88;;;5.18;;
17510;SDS011;8873;48.818;9.422;2023-06-26T10:04:30;5.68;;;4.75;;
17510;SDS011;8873;48.818;9.422;2023-06-26T10:06:58;4.82;;;4.40;;
17510;SDS011;8873;48.818;9.422;2023-06-26T10:09:27;5.18;;;4.60;;
17510;SDS011;8873;48.818;9.422;2023-06-26T10:11:55;5.25;;;4.75;;
17510;SDS011;8873;48.818;9.422;2023-06-26T10:14:26;5.30;;;4.80;;
17510;SDS011;8873;48.818;9.422;2023-06-26T10:16:55;5.22;;;4.72;;
17510;SDS011;8873;48.818;9.422;2023-06-26T10:19:24;6.75;;;4.70;;
17510;SDS011;8873;48.818;9.422;2023-06-26T10:21:54;5.25;;;4.35;;
17510;SDS011;8873;48.818;9.422;2023-06-26T10:24:22;4.53;;;4.13;;
17510;SDS011;8873;48.818;9.422;2023-06-26T10:26:56;6.90;;;4.32;;
17510;SDS011;8873;48.818;9.422;2023-06-26T10:29:27;5.10;;;4.32;;
17510;SDS011;8873;48.818;9.422;2023-06-26T10:32:00;4.47;;;4.13;;
17510;SDS011;8873;48.818;9.422;2023-06-26T10:34:34;6.68;;;4.75;;
17510;SDS011;8873;48.818;9.422;2023-06-26T10:37:03;7.28;;;4.72;;
17510;SDS011;8873;48.818;9.422;2023-06-26T10:39:45;5.90;;;4.65;;
17510;SDS011;8873;48.818;9.422;2023-06-26T10:42:28;5.30;;;4.05;;
17510;SDS011;8873;48.818;9.422;2023-06-26T10:45:10;5.03;;;4.40;;
17510;SDS011;8873;48.818;9.422;2023-06-26T10:47:41;5.95;;;4.70;;
17510;SDS011;8873;48.818;9.422;2023-06-26T10:50:19;6.75;;;4.47;;
17510;SDS011;8873;48.818;9.422;2023-06-26T10:53:06;6.13;;;5.53;;
17510;SDS011;8873;48.818;9.422;2023-06-26T10:55:34;7.72;;;5.07;;
17510;SDS011;8873;48.818;9.422;2023-06-26T10:58:02;5.68;;;4.63;;
17510;SDS011;8873;48.818;9.422;2023-06-26T11:00:31;7.03;;;5.22;;
17510;SDS011;8873;48.818;9.422;2023-06-26T11:03:03;5.30;;;4.80;;
17510;SDS011;8873;48.818;9.422;2023-06-26T11:05:59;5.35;;;4.80;;
17510;SDS011;8873;48.818;9.422;2023-06-26T11:11:54;7.25;;;5.13;;
17510;SDS011;8873;48.818;9.422;2023-06-26T11:14:14;5.32;;;4.82;;
17510;SDS011;8873;48.818;9.422;2023-06-26T11:16:47;6.43;;;5.18;;
17510;SDS011;8873;48.818;9.422;2023-06-26T11:19:16;5.88;;;4.93;;
17510;SDS011;8873;48.818;9.422;2023-06-26T11:21:44;8.23;;;5.18;;
17510;SDS011;8873;48.818;9.422;2023-06-26T11:24:18;5.93;;;4.95;;
17510;SDS011;8873;48.818;9.422;2023-06-26T11:26:46;5.78;;;5.18;;
17510;SDS011;8873;48.818;9.422;2023-06-26T11:29:15;9.40;;;5.68;;
17510;SDS011;8873;48.818;9.422;2023-06-26T11:31:59;6.65;;;5.15;;
17510;SDS011;8873;48.818;9.422;2023-06-26T11:34:31;6.90;;;5.20;;
17510;SDS011;8873;48.818;9.422;2023-06-26T11:36:59;8.90;;;5.60;;
17510;SDS011;8873;48.818;9.422;2023-06-26T11:39:30;8.23;;;5.20;;
17510;SDS011;8873;48.818;9.422;2023-06-26T11:41:59;6.32;;;5.40;;
17510;SDS011;8873;48.818;9.422;2023-06-26T11:44:31;5.65;;;5.15;;
17510;SDS011;8873;48.818;9.422;2023-06-26T11:47:02;6.35;;;5.40;;
17510;SDS011;8873;48.818;9.422;2023-06-26T11:49:38;5.53;;;4.85;;
17510;SDS011;8873;48.818;9.422;2023-06-26T11:52:12;8.07;;;5.57;;
17510;SDS011;8873;48.818;9.422;2023-06-26T11:54:40;7.50;;;5.65;;
17510;SDS011;8873;48.818;9.422;2023-06-26T11:57:13;9.00;;;5.32;;
17510;SDS011;8873;48.818;9.422;2023-06-26T11:59:41;5.25;;;4.72;;
17510;SDS011;8873;48.818;9.422;2023-06-26T12:02:14;6.43;;;5.25;;
17510;SDS011;8873;48.818;9.422;2023-06-26T12:04:48;6.50;;;5.40;;
17510;SDS011;8873;48.818;9.422;2023-06-26T12:07:18;6.13;;;5.40;;
17510;SDS011;8873;48.818;9.422;2023-06-26T12:09:49;6.03;;;5.28;;
17510;SDS011;8873;48.818;9.422;2023-06-26T12:12:17;7.00;;;5.43;;
17510;SDS011;8873;48.818;9.422;2023-06-26T12:14:48;6.05;;;5.43;;
17510;SDS011;8873;48.818;9.422;2023-06-26T12:17:22;5.45;;;4.95;;
17510;SDS011;8873;48.818;9.422;2023-06-26T12:19:52;5.63;;;4.82;;
17510;SDS011;8873;48.818;9.422;2023-06-26T12:22:20;6.80;;;5.70;;
17510;SDS011;8873;48.818;9.422;2023-06-26T12:24:56;6.43;;;5.47;;
17510;SDS011;8873;48.818;9.422;2023-06-26T12:27:26;6.53;;;4.97;;
17510;SDS011;8873;48.818;9.422;2023-06-26T12:29:55;5.93;;;5.18;;
17510;SDS011;8873;48.818;9.422;2023-06-26T12:32:27;6.78;;;5.32;;
17510;SDS011;8873;48.818;9.422;2023-06-26T12:34:56;8.07;;;5.40;;
17510;SDS011;8873;48.818;9.422;2023-06-26T12:37:24;6.50;;;5.20;;
17510;SDS011;8873;48.818;9.422;2023-06-26T12:39:52;8.60;;;5.72;;
17510;SDS011;8873;48.818;9.422;2023-06-26T12:42:23;6.05;;;5.45;;
17510;SDS011;8873;48.818;9.422;2023-06-26T12:44:54;7.00;;;5.15;;
17510;SDS011;8873;48.818;9.422;2023-06-26T12:47:25;7.03;;;5.28;;
17510;SDS011;8873;48.818;9.422;2023-06-26T12:49:54;6.47;;;5.00;;
17510;SDS011;8873;48.818;9.422;2023-06-26T12:52:21;8.23;;;5.20;;
17510;SDS011;8873;48.818;9.422;2023-06-26T12:54:51;7.70;;;5.18;;
17510;SDS011;8873;48.818;9.422;2023-06-26T12:57:24;6.40;;;5.18;;
17510;SDS011;8873;48.818;9.422;2023-06-26T12:59:54;5.43;;;4.57;;
17510;SDS011;8873;48.818;9.422;2023-06-26T13:02:22;6.20;;;5.18;;
17510;SDS011;8873;48.818;9.422;2023-06-26T13:04:51;8.10;;;5.57;;
17510;SDS011;8873;48.818;9.422;2023-06-26T13:07:19;9.07;;;5.05;;
17510;SDS011;8873;48.818;9.422;2023-06-26T13:09:50;5.57;;;4.80;;
17510;SDS011;8873;48.818;9.422;2023-06-26T13:12:20;7.30;;;5.22;;
17510;SDS011;8873;48.818;9.422;2023-06-26T13:14:48;7.97;;;4.78;;
17510;SDS011;8873;48.818;9.422;2023-06-26T13:17:15;6.05;;;5.43;;
17510;SDS011;8873;48.818;9.422;2023-06-26T13:19:44;5.80;;;4.88;;
17510;SDS011;8873;48.818;9.422;2023-06-26T13:22:13;5.68;;;4.75;;
17510;SDS011;8873;48.818;9.422;2023-06-26T13:24:43;5.35;;;4.85;;
17510;SDS011;8873;48.818;9.422;2023-06-26T13:27:11;8.68;;;5.32;;
17510;SDS011;8873;48.818;9.422;2023-06-26T13:29:39;8.55;;;5.45;;
17510;SDS011;8873;48.818;9.422;2023-06-26T13:32:08;6.18;;;5.53;;
17510;SDS011;8873;48.818;9.422;2023-06-26T13:34:36;8.35;;;4.63;;
17510;SDS011;8873;48.818;9.422;2023-06-26T13:37:06;5.88;;;4.38;;
17510;SDS011;8873;48.818;9.422;2023-06-26T13:39:35;6.95;;;4.80;;
17510;SDS011;8873;48.818;9.422;2023-06-26T13:42:05;7.72;;;4.60;;
17510;SDS011;8873;48.818;9.422;2023-06-26T13:44:34;6.47;;;4.18;;
17510;SDS011;8873;48.818;9.422;2023-06-26T13:47:17;5.43;;;4.22;;
17510;SDS011;8873;48.818;9.422;2023-06-26T13:49:45;4.88;;;4.30;;
17510;SDS011;8873;48.818;9.422;2023-06-26T13:52:12;5.82;;;4.60;;
17510;SDS011;8873;48.818;9.422;2023-06-26T13:54:44;6.68;;;4.70;;
17510;SDS011;8873;48.818;9.422;2023-06-26T13:57:12;5.88;;;4.28;;
17510;SDS011;8873;48.818;9.422;2023-06-26T13:59:40;5.70;;;4.65;;
17510;SDS011;8873;48.818;9.422;2023-06-26T14:02:08;6.30;;;4.47;;
17510;SDS011;8873;48.818;9.422;2023-06-26T14:04:36;5.72;;;4.32;;
17510;SDS011;8873;48.818;9.422;2023-06-26T14:07:04;4.93;;;4.30;;
17510;SDS011;8873;48.818;9.422;2023-06-26T14:09:33;5.40;;;4.28;;
17510;SDS011;8873;48.818;9.422;2023-06-26T14:12:03;4.65;;;4.15;;
17510;SDS011;8873;48.818;9.422;2023-06-26T14:14:30;5.32;;;4.18;;
17510;SDS011;8873;48.818;9.422;2023-06-26T14:16:58;6.75;;;4.20;;
17510;SDS011;8873;48.818;9.422;2023-06-26T14:19:26;6.47;;;4.15;;
17510;SDS011;8873;48.818;9.422;2023-06-26T14:21:57;7.10;;;4.13;;
17510;SDS011;8873;48.818;9.422;2023-06-26T14:24:34;4.65;;;3.90;;
17510;SDS011;8873;48.818;9.422;2023-06-26T14:27:04;3.95;;;3.60;;
17510;SDS011;8873;48.818;9.422;2023-06-26T14:29:31;7.57;;;3.42;;
17510;SDS011;8873;48.818;9.422;2023-06-26T14:31:59;5.45;;;3.85;;
17510;SDS011;8873;48.818;9.422;2023-06-26T14:34:27;5.38;;;3.58;;
17510;SDS011;8873;48.818;9.422;2023-06-26T14:37:02;6.72;;;3.65;;
17510;SDS011;8873;48.818;9.422;2023-06-26T14:39:31;9.15;;;3.53;;
17510;SDS011;8873;48.818;9.422;2023-06-26T14:42:00;5.95;;;3.40;;
17510;SDS011;8873;48.818;9.422;2023-06-26T14:44:34;3.42;;;3.03;;
17510;SDS011;8873;48.818;9.422;2023-06-26T14:47:03;3.47;;;3.17;;
17510;SDS011;8873;48.818;9.422;2023-06-26T14:49:31;3.47;;;3.08;;
17510;SDS011;8873;48.818;9.422;2023-06-26T14:52:02;3.75;;;3.38;;
17510;SDS011;8873;48.818;9.422;2023-06-26T14:54:37;3.35;;;2.92;;
17510;SDS011;8873;48.818;9.422;2023-06-26T14:57:06;4.38;;;2.83;;
17510;SDS011;8873;48.818;9.422;2023-06-26T14:59:35;3.30;;;3.00;;
17510;SDS011;8873;48.818;9.422;2023-06-26T15:02:02;3.50;;;3.20;;
17510;SDS011;8873;48.818;9.422;2023-06-26T15:04:31;3.13;;;2.85;;
17510;SDS011;8873;48.818;9.422;2023-06-26T15:06:59;6.65;;;3.60;;
17510;SDS011;8873;48.818;9.422;2023-06-26T15:09:26;3.25;;;2.95;;
17510;SDS011;8873;48.818;9.422;2023-06-26T15:11:54;3.63;;;3.15;;
17510;SDS011;8873;48.818;9.422;2023-06-26T15:14:22;3.33;;;3.03;;
17510;SDS011;8873;48.818;9.422;2023-06-26T15:16:51;4.20;;;2.83;;
17510;SDS011;8873;48.818;9.422;2023-06-26T15:19:19;3.38;;;3.08;;